This is the latest recevied weather packets stored in our database for station/object SP2WPY-13. If no packets are shown the sender has not sent any weather packets the latest 10 day(s).
| Time | Temp. | Humidity | Pressure | Rain* | Wind** | Luminosity | Snow |
|---|---|---|---|---|---|---|---|
| 1788076846 | 21.67° C | 78% | 1013.6 hPa | - | - | - | - |
| 1788076526 | 21.67° C | 76% | 1013.5 hPa | - | - | - | - |
| 1788076206 | 21.67° C | 78% | 1013.5 hPa | - | - | - | - |
| 1788075932 | 21.67° C | 76% | 1013.6 hPa | - | - | - | - |
| 1788075613 | 21.67° C | 76% | 1013.6 hPa | - | - | - | - |
| 1788075338 | 21.67° C | 77% | 1013.6 hPa | - | - | - | - |
| 1788075019 | 21.67° C | 77% | 1013.6 hPa | - | - | - | - |
| 1788074744 | 21.67° C | 78% | 1013.6 hPa | - | - | - | - |
| 1788074424 | 21.67° C | 79% | 1013.6 hPa | - | - | - | - |
| 1788074104 | 21.11° C | 83% | 1013.7 hPa | - | - | - | - |
| 1788073830 | 20.56° C | 82% | 1013.6 hPa | - | - | - | - |
| 1788073511 | 20.56° C | 82% | 1013.7 hPa | - | - | - | - |
| 1788073236 | 21.11° C | 79% | 1013.7 hPa | - | - | - | - |
| 1788072917 | 21.67° C | 79% | 1013.7 hPa | - | - | - | - |
| 1788072643 | 21.67° C | 79% | 1013.8 hPa | - | - | - | - |
| 1788072323 | 21.11° C | 81% | 1013.8 hPa | - | - | - | - |
| 1788072003 | 20.56° C | 87% | 1013.8 hPa | - | - | - | - |
| 1788071729 | 20° C | 89% | 1013.8 hPa | - | - | - | - |
| 1788071410 | 20° C | 89% | 1013.9 hPa | - | - | - | - |
| 1788071136 | 18.89° C | 94% | 1014 hPa | - | - | - | - |
| 1788070816 | 18.89° C | 94% | 1013.9 hPa | - | - | - | - |
| 1788070542 | 18.89° C | 93% | 1013.9 hPa | - | - | - | - |
| 1788070222 | 18.89° C | 92% | 1013.9 hPa | - | - | - | - |
| 1788069903 | 18.89° C | 93% | 1014 hPa | - | - | - | - |
| 1788069629 | 18.89° C | 94% | 1014 hPa | - | - | - | - |
* Rain since midnight (hover to see other rain measurements)
** Current wind speed in m/s (hover to see current wind gust speed)